sensor_id;sensor_type;location;lat;lon;timestamp;P1;durP1;ratioP1;P2;durP2;ratioP2
12861;SDS011;6499;66.348;14.134;2024-02-21T00:00:42;0.43;;;0.40;;
12861;SDS011;6499;66.348;14.134;2024-02-21T00:03:09;0.43;;;0.40;;
12861;SDS011;6499;66.348;14.134;2024-02-21T00:05:37;0.80;;;0.50;;
12861;SDS011;6499;66.348;14.134;2024-02-21T00:08:04;0.90;;;0.40;;
12861;SDS011;6499;66.348;14.134;2024-02-21T00:10:31;0.53;;;0.40;;
12861;SDS011;6499;66.348;14.134;2024-02-21T00:12:58;0.30;;;0.30;;
12861;SDS011;6499;66.348;14.134;2024-02-21T00:15:25;0.50;;;0.30;;
12861;SDS011;6499;66.348;14.134;2024-02-21T00:17:52;0.30;;;0.30;;
12861;SDS011;6499;66.348;14.134;2024-02-21T00:20:19;0.30;;;0.30;;
12861;SDS011;6499;66.348;14.134;2024-02-21T00:22:47;0.40;;;0.40;;
12861;SDS011;6499;66.348;14.134;2024-02-21T00:25:13;2.97;;;0.93;;
12861;SDS011;6499;66.348;14.134;2024-02-21T00:27:40;3.40;;;1.30;;
12861;SDS011;6499;66.348;14.134;2024-02-21T00:30:07;4.73;;;1.57;;
12861;SDS011;6499;66.348;14.134;2024-02-21T00:32:36;4.60;;;1.70;;
12861;SDS011;6499;66.348;14.134;2024-02-21T00:35:03;4.07;;;1.93;;
12861;SDS011;6499;66.348;14.134;2024-02-21T00:37:30;4.37;;;1.50;;
12861;SDS011;6499;66.348;14.134;2024-02-21T00:39:58;5.43;;;1.77;;
12861;SDS011;6499;66.348;14.134;2024-02-21T00:42:25;4.20;;;1.93;;
12861;SDS011;6499;66.348;14.134;2024-02-21T00:44:52;5.03;;;1.80;;
12861;SDS011;6499;66.348;14.134;2024-02-21T00:47:18;3.17;;;1.63;;
12861;SDS011;6499;66.348;14.134;2024-02-21T00:49:45;1.10;;;0.80;;
12861;SDS011;6499;66.348;14.134;2024-02-21T00:52:12;1.37;;;1.13;;
12861;SDS011;6499;66.348;14.134;2024-02-21T00:54:38;2.40;;;1.47;;
12861;SDS011;6499;66.348;14.134;2024-02-21T00:57:06;2.70;;;1.30;;
12861;SDS011;6499;66.348;14.134;2024-02-21T00:59:33;4.23;;;1.30;;
12861;SDS011;6499;66.348;14.134;2024-02-21T01:02:00;1.20;;;0.80;;
12861;SDS011;6499;66.348;14.134;2024-02-21T01:04:26;1.57;;;0.93;;
12861;SDS011;6499;66.348;14.134;2024-02-21T01:06:53;1.00;;;0.90;;
12861;SDS011;6499;66.348;14.134;2024-02-21T01:09:19;0.73;;;0.67;;
12861;SDS011;6499;66.348;14.134;2024-02-21T01:11:49;0.90;;;0.70;;
12861;SDS011;6499;66.348;14.134;2024-02-21T01:14:17;0.60;;;0.60;;
12861;SDS011;6499;66.348;14.134;2024-02-21T01:16:43;0.73;;;0.73;;
12861;SDS011;6499;66.348;14.134;2024-02-21T01:19:10;1.13;;;0.70;;
12861;SDS011;6499;66.348;14.134;2024-02-21T01:21:37;0.50;;;0.50;;
12861;SDS011;6499;66.348;14.134;2024-02-21T01:24:03;0.60;;;0.60;;
12861;SDS011;6499;66.348;14.134;2024-02-21T01:26:30;0.50;;;0.50;;
12861;SDS011;6499;66.348;14.134;2024-02-21T01:28:57;1.03;;;0.60;;
12861;SDS011;6499;66.348;14.134;2024-02-21T01:31:25;0.70;;;0.67;;
12861;SDS011;6499;66.348;14.134;2024-02-21T01:33:52;1.43;;;0.63;;
12861;SDS011;6499;66.348;14.134;2024-02-21T01:36:18;0.80;;;0.57;;
12861;SDS011;6499;66.348;14.134;2024-02-21T01:38:45;0.83;;;0.80;;
12861;SDS011;6499;66.348;14.134;2024-02-21T01:41:11;4.23;;;2.30;;
12861;SDS011;6499;66.348;14.134;2024-02-21T01:43:38;4.00;;;1.70;;
12861;SDS011;6499;66.348;14.134;2024-02-21T01:46:05;3.50;;;1.90;;
12861;SDS011;6499;66.348;14.134;2024-02-21T01:48:34;3.57;;;2.30;;
12861;SDS011;6499;66.348;14.134;2024-02-21T01:51:01;5.37;;;2.63;;
12861;SDS011;6499;66.348;14.134;2024-02-21T01:53:30;4.53;;;2.97;;
12861;SDS011;6499;66.348;14.134;2024-02-21T01:55:57;5.60;;;3.33;;
12861;SDS011;6499;66.348;14.134;2024-02-21T01:58:24;4.03;;;2.87;;
12861;SDS011;6499;66.348;14.134;2024-02-21T02:00:51;4.80;;;2.73;;
12861;SDS011;6499;66.348;14.134;2024-02-21T02:03:18;3.57;;;2.47;;
12861;SDS011;6499;66.348;14.134;2024-02-21T02:05:46;3.00;;;2.47;;
12861;SDS011;6499;66.348;14.134;2024-02-21T02:08:13;5.17;;;2.97;;
12861;SDS011;6499;66.348;14.134;2024-02-21T02:10:40;3.50;;;2.60;;
12861;SDS011;6499;66.348;14.134;2024-02-21T02:13:07;2.63;;;1.90;;
12861;SDS011;6499;66.348;14.134;2024-02-21T02:15:40;2.40;;;2.00;;
12861;SDS011;6499;66.348;14.134;2024-02-21T02:18:06;3.60;;;2.00;;
12861;SDS011;6499;66.348;14.134;2024-02-21T02:20:33;3.17;;;2.00;;
12861;SDS011;6499;66.348;14.134;2024-02-21T02:23:01;2.70;;;1.80;;
12861;SDS011;6499;66.348;14.134;2024-02-21T02:25:34;2.10;;;1.60;;
12861;SDS011;6499;66.348;14.134;2024-02-21T02:28:00;2.63;;;1.40;;
12861;SDS011;6499;66.348;14.134;2024-02-21T02:30:27;2.60;;;1.60;;
12861;SDS011;6499;66.348;14.134;2024-02-21T02:32:54;1.53;;;1.23;;
12861;SDS011;6499;66.348;14.134;2024-02-21T02:35:21;2.00;;;1.40;;
12861;SDS011;6499;66.348;14.134;2024-02-21T02:37:48;4.13;;;1.90;;
12861;SDS011;6499;66.348;14.134;2024-02-21T02:40:15;4.63;;;2.00;;
12861;SDS011;6499;66.348;14.134;2024-02-21T02:42:44;3.23;;;2.07;;
12861;SDS011;6499;66.348;14.134;2024-02-21T02:45:10;3.40;;;1.83;;
12861;SDS011;6499;66.348;14.134;2024-02-21T02:47:38;3.73;;;2.13;;
12861;SDS011;6499;66.348;14.134;2024-02-21T02:50:06;3.10;;;1.97;;
12861;SDS011;6499;66.348;14.134;2024-02-21T02:52:33;2.23;;;1.30;;
12861;SDS011;6499;66.348;14.134;2024-02-21T02:54:59;1.77;;;1.30;;
12861;SDS011;6499;66.348;14.134;2024-02-21T02:57:27;2.30;;;1.40;;
12861;SDS011;6499;66.348;14.134;2024-02-21T02:59:55;2.27;;;1.10;;
12861;SDS011;6499;66.348;14.134;2024-02-21T03:02:21;3.03;;;1.47;;
12861;SDS011;6499;66.348;14.134;2024-02-21T03:04:48;3.53;;;1.80;;
12861;SDS011;6499;66.348;14.134;2024-02-21T03:07:15;3.07;;;1.80;;
12861;SDS011;6499;66.348;14.134;2024-02-21T03:09:42;4.03;;;2.10;;
12861;SDS011;6499;66.348;14.134;2024-02-21T03:12:09;3.57;;;2.27;;
12861;SDS011;6499;66.348;14.134;2024-02-21T03:14:35;4.40;;;2.57;;
12861;SDS011;6499;66.348;14.134;2024-02-21T03:17:04;6.13;;;3.10;;
12861;SDS011;6499;66.348;14.134;2024-02-21T03:19:31;4.23;;;2.60;;
12861;SDS011;6499;66.348;14.134;2024-02-21T03:21:57;4.10;;;2.47;;
12861;SDS011;6499;66.348;14.134;2024-02-21T03:24:24;3.40;;;2.60;;
12861;SDS011;6499;66.348;14.134;2024-02-21T03:26:51;3.80;;;2.33;;
12861;SDS011;6499;66.348;14.134;2024-02-21T03:29:17;3.70;;;2.53;;
12861;SDS011;6499;66.348;14.134;2024-02-21T03:31:44;4.43;;;2.60;;
12861;SDS011;6499;66.348;14.134;2024-02-21T03:34:12;8.53;;;3.40;;
12861;SDS011;6499;66.348;14.134;2024-02-21T03:36:39;5.57;;;3.17;;
12861;SDS011;6499;66.348;14.134;2024-02-21T03:39:05;5.30;;;2.87;;
12861;SDS011;6499;66.348;14.134;2024-02-21T03:41:33;5.67;;;3.20;;
12861;SDS011;6499;66.348;14.134;2024-02-21T03:43:59;7.10;;;3.27;;
12861;SDS011;6499;66.348;14.134;2024-02-21T03:46:26;7.20;;;3.10;;
12861;SDS011;6499;66.348;14.134;2024-02-21T03:48:53;4.90;;;2.43;;
12861;SDS011;6499;66.348;14.134;2024-02-21T03:51:21;5.40;;;2.80;;
12861;SDS011;6499;66.348;14.134;2024-02-21T03:53:48;4.37;;;2.47;;
12861;SDS011;6499;66.348;14.134;2024-02-21T03:56:14;5.43;;;2.60;;
12861;SDS011;6499;66.348;14.134;2024-02-21T03:58:41;3.97;;;2.20;;
12861;SDS011;6499;66.348;14.134;2024-02-21T04:01:14;3.53;;;2.03;;
12861;SDS011;6499;66.348;14.134;2024-02-21T04:03:44;3.40;;;1.77;;
12861;SDS011;6499;66.348;14.134;2024-02-21T04:06:11;4.20;;;1.80;;
12861;SDS011;6499;66.348;14.134;2024-02-21T04:08:39;2.20;;;1.50;;
12861;SDS011;6499;66.348;14.134;2024-02-21T04:11:06;2.63;;;1.53;;
12861;SDS011;6499;66.348;14.134;2024-02-21T04:13:32;2.73;;;1.70;;
12861;SDS011;6499;66.348;14.134;2024-02-21T04:15:59;4.63;;;2.00;;
12861;SDS011;6499;66.348;14.134;2024-02-21T04:18:26;3.50;;;1.77;;
12861;SDS011;6499;66.348;14.134;2024-02-21T04:20:53;2.87;;;1.40;;
12861;SDS011;6499;66.348;14.134;2024-02-21T04:23:19;2.17;;;1.40;;
12861;SDS011;6499;66.348;14.134;2024-02-21T04:25:47;4.10;;;2.30;;
12861;SDS011;6499;66.348;14.134;2024-02-21T04:28:14;4.57;;;2.30;;
12861;SDS011;6499;66.348;14.134;2024-02-21T04:30:41;4.13;;;2.10;;
12861;SDS011;6499;66.348;14.134;2024-02-21T04:33:07;4.37;;;2.30;;
12861;SDS011;6499;66.348;14.134;2024-02-21T04:35:35;4.60;;;2.17;;
12861;SDS011;6499;66.348;14.134;2024-02-21T04:38:02;3.80;;;2.00;;
12861;SDS011;6499;66.348;14.134;2024-02-21T04:40:29;2.63;;;1.50;;
12861;SDS011;6499;66.348;14.134;2024-02-21T04:42:57;3.10;;;1.33;;
12861;SDS011;6499;66.348;14.134;2024-02-21T04:45:24;1.87;;;1.23;;
12861;SDS011;6499;66.348;14.134;2024-02-21T04:47:50;3.13;;;1.80;;
12861;SDS011;6499;66.348;14.134;2024-02-21T04:50:17;4.53;;;2.53;;
12861;SDS011;6499;66.348;14.134;2024-02-21T04:52:44;6.33;;;3.07;;
12861;SDS011;6499;66.348;14.134;2024-02-21T04:55:10;7.87;;;3.30;;
12861;SDS011;6499;66.348;14.134;2024-02-21T04:57:37;5.73;;;2.63;;
12861;SDS011;6499;66.348;14.134;2024-02-21T05:00:06;6.47;;;2.70;;
12861;SDS011;6499;66.348;14.134;2024-02-21T05:02:32;3.90;;;2.50;;
12861;SDS011;6499;66.348;14.134;2024-02-21T05:04:59;3.13;;;1.90;;
12861;SDS011;6499;66.348;14.134;2024-02-21T05:07:26;5.57;;;2.77;;
12861;SDS011;6499;66.348;14.134;2024-02-21T05:09:52;4.50;;;2.43;;
12861;SDS011;6499;66.348;14.134;2024-02-21T05:12:19;3.90;;;2.07;;
12861;SDS011;6499;66.348;14.134;2024-02-21T05:14:46;4.40;;;2.50;;
12861;SDS011;6499;66.348;14.134;2024-02-21T05:17:14;4.80;;;2.73;;
12861;SDS011;6499;66.348;14.134;2024-02-21T05:19:41;5.53;;;2.60;;
12861;SDS011;6499;66.348;14.134;2024-02-21T05:22:08;6.07;;;2.73;;
12861;SDS011;6499;66.348;14.134;2024-02-21T05:24:34;7.27;;;3.20;;
12861;SDS011;6499;66.348;14.134;2024-02-21T05:27:01;5.77;;;2.80;;
12861;SDS011;6499;66.348;14.134;2024-02-21T05:29:28;5.40;;;2.70;;
12861;SDS011;6499;66.348;14.134;2024-02-21T05:31:55;5.30;;;2.83;;
12861;SDS011;6499;66.348;14.134;2024-02-21T05:34:24;7.20;;;2.87;;
12861;SDS011;6499;66.348;14.134;2024-02-21T05:36:50;4.33;;;2.57;;
12861;SDS011;6499;66.348;14.134;2024-02-21T05:39:17;7.17;;;2.70;;
12861;SDS011;6499;66.348;14.134;2024-02-21T05:41:44;5.20;;;2.70;;
12861;SDS011;6499;66.348;14.134;2024-02-21T05:44:11;3.10;;;2.43;;
12861;SDS011;6499;66.348;14.134;2024-02-21T05:46:37;4.10;;;2.00;;
12861;SDS011;6499;66.348;14.134;2024-02-21T05:49:04;2.80;;;1.90;;
12861;SDS011;6499;66.348;14.134;2024-02-21T05:51:33;5.40;;;2.27;;
12861;SDS011;6499;66.348;14.134;2024-02-21T05:54:00;4.37;;;2.30;;
12861;SDS011;6499;66.348;14.134;2024-02-21T05:56:39;2.50;;;1.87;;
12861;SDS011;6499;66.348;14.134;2024-02-21T05:59:06;5.17;;;2.37;;
12861;SDS011;6499;66.348;14.134;2024-02-21T06:01:32;5.33;;;2.07;;
12861;SDS011;6499;66.348;14.134;2024-02-21T06:03:59;4.63;;;2.13;;
12861;SDS011;6499;66.348;14.134;2024-02-21T06:06:26;4.97;;;2.43;;
12861;SDS011;6499;66.348;14.134;2024-02-21T06:08:54;3.43;;;2.13;;
12861;SDS011;6499;66.348;14.134;2024-02-21T06:11:21;6.10;;;2.50;;
12861;SDS011;6499;66.348;14.134;2024-02-21T06:13:47;7.43;;;2.77;;
12861;SDS011;6499;66.348;14.134;2024-02-21T06:16:14;5.43;;;2.40;;
12861;SDS011;6499;66.348;14.134;2024-02-21T06:18:41;9.73;;;2.40;;
12861;SDS011;6499;66.348;14.134;2024-02-21T06:21:07;4.97;;;2.70;;
12861;SDS011;6499;66.348;14.134;2024-02-21T06:23:36;10.83;;;8.03;;
12861;SDS011;6499;66.348;14.134;2024-02-21T06:26:04;24.47;;;10.40;;
12861;SDS011;6499;66.348;14.134;2024-02-21T06:28:31;12.43;;;6.87;;
12861;SDS011;6499;66.348;14.134;2024-02-21T06:30:58;6.97;;;4.37;;
12861;SDS011;6499;66.348;14.134;2024-02-21T06:33:24;5.57;;;2.77;;
12861;SDS011;6499;66.348;14.134;2024-02-21T06:35:51;7.47;;;3.27;;
12861;SDS011;6499;66.348;14.134;2024-02-21T06:38:19;5.87;;;3.03;;
12861;SDS011;6499;66.348;14.134;2024-02-21T06:40:45;7.53;;;3.10;;
12861;SDS011;6499;66.348;14.134;2024-02-21T06:43:20;6.43;;;3.70;;
12861;SDS011;6499;66.348;14.134;2024-02-21T06:45:47;6.47;;;3.00;;
12861;SDS011;6499;66.348;14.134;2024-02-21T06:48:16;6.87;;;3.40;;
12861;SDS011;6499;66.348;14.134;2024-02-21T06:50:43;9.97;;;4.30;;
12861;SDS011;6499;66.348;14.134;2024-02-21T06:53:09;9.87;;;4.43;;
12861;SDS011;6499;66.348;14.134;2024-02-21T06:55:36;8.23;;;3.90;;
12861;SDS011;6499;66.348;14.134;2024-02-21T06:58:03;10.53;;;5.90;;
12861;SDS011;6499;66.348;14.134;2024-02-21T07:00:31;12.63;;;6.10;;
12861;SDS011;6499;66.348;14.134;2024-02-21T07:02:58;11.00;;;5.77;;
12861;SDS011;6499;66.348;14.134;2024-02-21T07:05:24;9.03;;;5.20;;
12861;SDS011;6499;66.348;14.134;2024-02-21T07:07:51;10.23;;;5.73;;
12861;SDS011;6499;66.348;14.134;2024-02-21T07:10:18;11.73;;;5.67;;
12861;SDS011;6499;66.348;14.134;2024-02-21T07:12:44;11.00;;;6.10;;
12861;SDS011;6499;66.348;14.134;2024-02-21T07:15:11;8.87;;;4.33;;
12861;SDS011;6499;66.348;14.134;2024-02-21T07:17:39;10.53;;;4.27;;
12861;SDS011;6499;66.348;14.134;2024-02-21T07:20:06;13.23;;;4.87;;
12861;SDS011;6499;66.348;14.134;2024-02-21T07:22:34;10.33;;;6.13;;
12861;SDS011;6499;66.348;14.134;2024-02-21T07:25:00;12.23;;;6.67;;
12861;SDS011;6499;66.348;14.134;2024-02-21T07:27:29;12.17;;;4.90;;
12861;SDS011;6499;66.348;14.134;2024-02-21T07:29:58;12.13;;;5.20;;
12861;SDS011;6499;66.348;14.134;2024-02-21T07:32:25;12.50;;;4.43;;
12861;SDS011;6499;66.348;14.134;2024-02-21T07:34:53;22.90;;;10.67;;
12861;SDS011;6499;66.348;14.134;2024-02-21T07:37:19;10.83;;;5.77;;
12861;SDS011;6499;66.348;14.134;2024-02-21T07:39:46;15.47;;;5.73;;
12861;SDS011;6499;66.348;14.134;2024-02-21T07:42:13;18.60;;;7.17;;
12861;SDS011;6499;66.348;14.134;2024-02-21T07:44:40;19.37;;;10.07;;
12861;SDS011;6499;66.348;14.134;2024-02-21T07:47:07;16.50;;;8.67;;
12861;SDS011;6499;66.348;14.134;2024-02-21T07:49:40;16.67;;;8.23;;
12861;SDS011;6499;66.348;14.134;2024-02-21T07:52:08;18.77;;;8.70;;
12861;SDS011;6499;66.348;14.134;2024-02-21T07:54:35;12.57;;;7.33;;
12861;SDS011;6499;66.348;14.134;2024-02-21T07:57:02;15.43;;;7.50;;
12861;SDS011;6499;66.348;14.134;2024-02-21T07:59:29;15.07;;;6.13;;
12861;SDS011;6499;66.348;14.134;2024-02-21T08:01:56;13.27;;;6.10;;
12861;SDS011;6499;66.348;14.134;2024-02-21T08:04:22;11.33;;;5.23;;
12861;SDS011;6499;66.348;14.134;2024-02-21T08:06:51;11.07;;;5.17;;
12861;SDS011;6499;66.348;14.134;2024-02-21T08:09:20;10.73;;;4.20;;
12861;SDS011;6499;66.348;14.134;2024-02-21T08:11:46;10.40;;;3.87;;
12861;SDS011;6499;66.348;14.134;2024-02-21T08:14:13;25.60;;;9.53;;
12861;SDS011;6499;66.348;14.134;2024-02-21T08:16:41;18.50;;;8.63;;
12861;SDS011;6499;66.348;14.134;2024-02-21T08:19:07;35.57;;;14.63;;
12861;SDS011;6499;66.348;14.134;2024-02-21T08:21:36;66.23;;;26.70;;
12861;SDS011;6499;66.348;14.134;2024-02-21T08:24:03;42.40;;;18.77;;
12861;SDS011;6499;66.348;14.134;2024-02-21T08:26:31;32.13;;;13.23;;
12861;SDS011;6499;66.348;14.134;2024-02-21T08:28:58;25.70;;;11.60;;
12861;SDS011;6499;66.348;14.134;2024-02-21T08:31:25;15.50;;;8.40;;
12861;SDS011;6499;66.348;14.134;2024-02-21T08:33:56;20.87;;;8.77;;
12861;SDS011;6499;66.348;14.134;2024-02-21T08:36:27;18.50;;;7.93;;
12861;SDS011;6499;66.348;14.134;2024-02-21T08:38:54;16.77;;;7.80;;
12861;SDS011;6499;66.348;14.134;2024-02-21T08:41:20;14.57;;;8.13;;
12861;SDS011;6499;66.348;14.134;2024-02-21T08:43:50;14.23;;;7.90;;
12861;SDS011;6499;66.348;14.134;2024-02-21T08:46:17;17.37;;;7.43;;
12861;SDS011;6499;66.348;14.134;2024-02-21T08:48:44;19.13;;;6.90;;
12861;SDS011;6499;66.348;14.134;2024-02-21T08:51:11;17.37;;;7.57;;
12861;SDS011;6499;66.348;14.134;2024-02-21T08:53:38;18.90;;;7.13;;
12861;SDS011;6499;66.348;14.134;2024-02-21T08:56:05;12.93;;;5.93;;
12861;SDS011;6499;66.348;14.134;2024-02-21T08:58:32;29.10;;;13.17;;
12861;SDS011;6499;66.348;14.134;2024-02-21T09:01:02;20.37;;;8.90;;
12861;SDS011;6499;66.348;14.134;2024-02-21T09:03:30;13.83;;;6.53;;
12861;SDS011;6499;66.348;14.134;2024-02-21T09:05:57;11.77;;;5.50;;
12861;SDS011;6499;66.348;14.134;2024-02-21T09:08:23;12.00;;;6.30;;
12861;SDS011;6499;66.348;14.134;2024-02-21T09:10:50;15.63;;;9.00;;
12861;SDS011;6499;66.348;14.134;2024-02-21T09:13:17;18.90;;;8.60;;
12861;SDS011;6499;66.348;14.134;2024-02-21T09:15:44;17.00;;;6.80;;
12861;SDS011;6499;66.348;14.134;2024-02-21T09:18:12;13.67;;;8.07;;
12861;SDS011;6499;66.348;14.134;2024-02-21T09:20:39;27.33;;;13.23;;
12861;SDS011;6499;66.348;14.134;2024-02-21T09:23:05;30.70;;;17.07;;
12861;SDS011;6499;66.348;14.134;2024-02-21T09:25:32;29.63;;;16.10;;
12861;SDS011;6499;66.348;14.134;2024-02-21T09:27:59;33.37;;;14.80;;
12861;SDS011;6499;66.348;14.134;2024-02-21T09:30:26;30.30;;;16.30;;
12861;SDS011;6499;66.348;14.134;2024-02-21T09:32:52;25.13;;;12.87;;
12861;SDS011;6499;66.348;14.134;2024-02-21T09:35:20;23.90;;;10.17;;
12861;SDS011;6499;66.348;14.134;2024-02-21T09:37:48;22.80;;;9.37;;
12861;SDS011;6499;66.348;14.134;2024-02-21T09:40:15;21.47;;;10.03;;
12861;SDS011;6499;66.348;14.134;2024-02-21T09:42:42;23.40;;;10.60;;
12861;SDS011;6499;66.348;14.134;2024-02-21T09:45:19;22.27;;;10.27;;
12861;SDS011;6499;66.348;14.134;2024-02-21T09:47:50;19.53;;;9.80;;
12861;SDS011;6499;66.348;14.134;2024-02-21T09:50:17;19.00;;;8.70;;
12861;SDS011;6499;66.348;14.134;2024-02-21T09:52:46;18.83;;;9.07;;
12861;SDS011;6499;66.348;14.134;2024-02-21T09:55:14;18.77;;;8.10;;
12861;SDS011;6499;66.348;14.134;2024-02-21T09:57:41;18.67;;;9.50;;
12861;SDS011;6499;66.348;14.134;2024-02-21T10:00:10;21.73;;;10.03;;
12861;SDS011;6499;66.348;14.134;2024-02-21T10:02:38;26.07;;;11.47;;
12861;SDS011;6499;66.348;14.134;2024-02-21T10:05:05;21.23;;;9.33;;
12861;SDS011;6499;66.348;14.134;2024-02-21T10:07:33;17.47;;;7.40;;
12861;SDS011;6499;66.348;14.134;2024-02-21T10:10:02;14.87;;;6.30;;
12861;SDS011;6499;66.348;14.134;2024-02-21T10:12:28;15.80;;;6.10;;
12861;SDS011;6499;66.348;14.134;2024-02-21T10:15:00;13.53;;;5.33;;
12861;SDS011;6499;66.348;14.134;2024-02-21T10:17:26;11.30;;;4.87;;
12861;SDS011;6499;66.348;14.134;2024-02-21T10:19:53;12.70;;;4.63;;
12861;SDS011;6499;66.348;14.134;2024-02-21T10:22:20;14.43;;;4.67;;
12861;SDS011;6499;66.348;14.134;2024-02-21T10:24:47;9.10;;;3.70;;
12861;SDS011;6499;66.348;14.134;2024-02-21T10:27:15;9.73;;;4.20;;
12861;SDS011;6499;66.348;14.134;2024-02-21T10:29:41;8.73;;;4.10;;
12861;SDS011;6499;66.348;14.134;2024-02-21T10:32:08;15.17;;;4.93;;
12861;SDS011;6499;66.348;14.134;2024-02-21T10:34:36;13.00;;;4.10;;
12861;SDS011;6499;66.348;14.134;2024-02-21T10:37:03;7.80;;;4.17;;
12861;SDS011;6499;66.348;14.134;2024-02-21T10:39:30;9.97;;;3.50;;
12861;SDS011;6499;66.348;14.134;2024-02-21T10:41:58;9.67;;;4.00;;
12861;SDS011;6499;66.348;14.134;2024-02-21T10:44:27;8.77;;;3.77;;
12861;SDS011;6499;66.348;14.134;2024-02-21T10:46:54;11.47;;;3.57;;
12861;SDS011;6499;66.348;14.134;2024-02-21T10:49:22;9.63;;;3.20;;
12861;SDS011;6499;66.348;14.134;2024-02-21T10:51:50;9.97;;;3.53;;
12861;SDS011;6499;66.348;14.134;2024-02-21T10:54:25;14.20;;;5.30;;
12861;SDS011;6499;66.348;14.134;2024-02-21T10:56:55;11.83;;;5.10;;
12861;SDS011;6499;66.348;14.134;2024-02-21T10:59:23;13.80;;;5.77;;
12861;SDS011;6499;66.348;14.134;2024-02-21T11:01:53;11.97;;;4.83;;
12861;SDS011;6499;66.348;14.134;2024-02-21T11:04:19;13.83;;;4.67;;
12861;SDS011;6499;66.348;14.134;2024-02-21T11:06:46;12.90;;;5.20;;
12861;SDS011;6499;66.348;14.134;2024-02-21T11:09:13;13.33;;;4.90;;
12861;SDS011;6499;66.348;14.134;2024-02-21T11:11:40;15.20;;;6.00;;
12861;SDS011;6499;66.348;14.134;2024-02-21T11:14:07;11.83;;;5.87;;
12861;SDS011;6499;66.348;14.134;2024-02-21T11:16:35;14.00;;;6.23;;
12861;SDS011;6499;66.348;14.134;2024-02-21T11:19:05;14.80;;;6.07;;
12861;SDS011;6499;66.348;14.134;2024-02-21T11:21:35;15.27;;;5.53;;
12861;SDS011;6499;66.348;14.134;2024-02-21T11:24:02;11.50;;;5.60;;
12861;SDS011;6499;66.348;14.134;2024-02-21T11:26:29;11.90;;;5.67;;
12861;SDS011;6499;66.348;14.134;2024-02-21T11:28:56;12.50;;;5.23;;
12861;SDS011;6499;66.348;14.134;2024-02-21T11:31:22;16.23;;;7.03;;
12861;SDS011;6499;66.348;14.134;2024-02-21T11:33:49;12.67;;;5.30;;
12861;SDS011;6499;66.348;14.134;2024-02-21T11:36:24;13.20;;;5.00;;
12861;SDS011;6499;66.348;14.134;2024-02-21T11:38:51;13.53;;;4.40;;
12861;SDS011;6499;66.348;14.134;2024-02-21T11:41:17;10.00;;;5.03;;
12861;SDS011;6499;66.348;14.134;2024-02-21T11:43:45;12.57;;;5.10;;
12861;SDS011;6499;66.348;14.134;2024-02-21T11:46:12;11.37;;;4.50;;
12861;SDS011;6499;66.348;14.134;2024-02-21T11:48:40;10.70;;;4.77;;
12861;SDS011;6499;66.348;14.134;2024-02-21T11:51:08;17.20;;;7.90;;
12861;SDS011;6499;66.348;14.134;2024-02-21T11:53:36;24.00;;;12.43;;
12861;SDS011;6499;66.348;14.134;2024-02-21T11:56:03;26.43;;;13.80;;
12861;SDS011;6499;66.348;14.134;2024-02-21T11:58:30;25.23;;;12.57;;
12861;SDS011;6499;66.348;14.134;2024-02-21T12:00:56;30.57;;;16.80;;
12861;SDS011;6499;66.348;14.134;2024-02-21T12:03:23;22.20;;;10.00;;
12861;SDS011;6499;66.348;14.134;2024-02-21T12:05:50;16.07;;;6.73;;
12861;SDS011;6499;66.348;14.134;2024-02-21T12:08:17;13.57;;;6.10;;
12861;SDS011;6499;66.348;14.134;2024-02-21T12:10:46;17.10;;;7.43;;
12861;SDS011;6499;66.348;14.134;2024-02-21T12:13:16;18.80;;;8.23;;
12861;SDS011;6499;66.348;14.134;2024-02-21T12:15:47;17.70;;;7.10;;
12861;SDS011;6499;66.348;14.134;2024-02-21T12:18:13;15.37;;;6.30;;
12861;SDS011;6499;66.348;14.134;2024-02-21T12:20:40;15.60;;;6.23;;
12861;SDS011;6499;66.348;14.134;2024-02-21T12:23:08;18.00;;;8.60;;
12861;SDS011;6499;66.348;14.134;2024-02-21T12:25:35;15.93;;;8.70;;
12861;SDS011;6499;66.348;14.134;2024-02-21T12:28:03;19.00;;;8.53;;
12861;SDS011;6499;66.348;14.134;2024-02-21T12:30:30;17.90;;;8.90;;
12861;SDS011;6499;66.348;14.134;2024-02-21T12:32:58;12.93;;;7.30;;
12861;SDS011;6499;66.348;14.134;2024-02-21T12:35:26;15.80;;;7.30;;
12861;SDS011;6499;66.348;14.134;2024-02-21T12:37:53;16.67;;;7.37;;
12861;SDS011;6499;66.348;14.134;2024-02-21T12:40:20;16.53;;;5.53;;
12861;SDS011;6499;66.348;14.134;2024-02-21T12:42:46;16.80;;;4.87;;
12861;SDS011;6499;66.348;14.134;2024-02-21T12:45:15;10.53;;;4.57;;
12861;SDS011;6499;66.348;14.134;2024-02-21T12:47:42;12.13;;;3.57;;
12861;SDS011;6499;66.348;14.134;2024-02-21T12:50:09;9.93;;;3.60;;
12861;SDS011;6499;66.348;14.134;2024-02-21T12:52:35;13.00;;;3.43;;
12861;SDS011;6499;66.348;14.134;2024-02-21T12:55:03;13.73;;;4.60;;
12861;SDS011;6499;66.348;14.134;2024-02-21T12:57:29;11.53;;;4.17;;
12861;SDS011;6499;66.348;14.134;2024-02-21T12:59:56;11.00;;;3.87;;
12861;SDS011;6499;66.348;14.134;2024-02-21T13:02:24;10.57;;;5.53;;
12861;SDS011;6499;66.348;14.134;2024-02-21T13:04:51;12.83;;;5.77;;
12861;SDS011;6499;66.348;14.134;2024-02-21T13:07:23;13.40;;;6.27;;
12861;SDS011;6499;66.348;14.134;2024-02-21T13:09:49;17.63;;;6.40;;
12861;SDS011;6499;66.348;14.134;2024-02-21T13:12:16;17.63;;;7.60;;
12861;SDS011;6499;66.348;14.134;2024-02-21T13:14:51;16.33;;;6.70;;
12861;SDS011;6499;66.348;14.134;2024-02-21T14:01:47;12.37;;;4.90;;
12861;SDS011;6499;66.348;14.134;2024-02-21T14:04:13;11.97;;;3.90;;
12861;SDS011;6499;66.348;14.134;2024-02-21T14:06:40;9.60;;;3.37;;
12861;SDS011;6499;66.348;14.134;2024-02-21T14:09:08;8.67;;;3.10;;
12861;SDS011;6499;66.348;14.134;2024-02-21T14:11:37;10.00;;;3.37;;
12861;SDS011;6499;66.348;14.134;2024-02-21T14:14:05;22.43;;;10.67;;
12861;SDS011;6499;66.348;14.134;2024-02-21T14:16:32;16.60;;;7.20;;
12861;SDS011;6499;66.348;14.134;2024-02-21T14:19:00;12.33;;;4.37;;
12861;SDS011;6499;66.348;14.134;2024-02-21T14:21:27;8.60;;;2.73;;
12861;SDS011;6499;66.348;14.134;2024-02-21T14:23:54;13.47;;;2.90;;
12861;SDS011;6499;66.348;14.134;2024-02-21T14:26:21;6.90;;;2.40;;
12861;SDS011;6499;66.348;14.134;2024-02-21T14:28:50;8.37;;;2.20;;
12861;SDS011;6499;66.348;14.134;2024-02-21T14:31:17;12.10;;;2.60;;
12861;SDS011;6499;66.348;14.134;2024-02-21T14:33:43;9.70;;;3.57;;
12861;SDS011;6499;66.348;14.134;2024-02-21T14:36:12;8.17;;;4.23;;
12861;SDS011;6499;66.348;14.134;2024-02-21T14:38:40;8.97;;;4.77;;
12861;SDS011;6499;66.348;14.134;2024-02-21T14:41:08;14.33;;;5.30;;
12861;SDS011;6499;66.348;14.134;2024-02-21T14:43:37;12.13;;;5.77;;
12861;SDS011;6499;66.348;14.134;2024-02-21T14:46:03;13.43;;;5.40;;
12861;SDS011;6499;66.348;14.134;2024-02-21T14:48:30;12.70;;;4.00;;
12861;SDS011;6499;66.348;14.134;2024-02-21T14:50:58;10.97;;;3.67;;
12861;SDS011;6499;66.348;14.134;2024-02-21T14:53:26;14.57;;;5.32;;
12861;SDS011;6499;66.348;14.134;2024-02-21T14:55:52;10.80;;;3.93;;
12861;SDS011;6499;66.348;14.134;2024-02-21T14:58:19;12.60;;;3.27;;
12861;SDS011;6499;66.348;14.134;2024-02-21T15:00:46;12.37;;;3.87;;
12861;SDS011;6499;66.348;14.134;2024-02-21T15:03:13;12.10;;;4.37;;
12861;SDS011;6499;66.348;14.134;2024-02-21T15:05:40;12.27;;;3.60;;
12861;SDS011;6499;66.348;14.134;2024-02-21T15:08:07;10.30;;;3.73;;
12861;SDS011;6499;66.348;14.134;2024-02-21T15:10:36;11.43;;;4.67;;
12861;SDS011;6499;66.348;14.134;2024-02-21T15:13:03;14.03;;;4.83;;
12861;SDS011;6499;66.348;14.134;2024-02-21T15:15:31;10.47;;;5.60;;
12861;SDS011;6499;66.348;14.134;2024-02-21T15:17:57;12.50;;;5.10;;
12861;SDS011;6499;66.348;14.134;2024-02-21T15:20:24;14.20;;;5.33;;
12861;SDS011;6499;66.348;14.134;2024-02-21T15:22:51;18.77;;;8.60;;
12861;SDS011;6499;66.348;14.134;2024-02-21T15:25:19;17.53;;;7.70;;